createdAt,value
2019-03-16T00:03:16.053Z,1.37
2019-03-16T00:08:15.611Z,0.80
2019-03-16T00:13:16.268Z,1.13
2019-03-16T00:18:16.077Z,1.40
2019-03-16T00:23:15.788Z,1.33
2019-03-16T00:28:15.315Z,1.23
2019-03-16T00:33:14.875Z,1.63
2019-03-16T00:38:14.415Z,1.30
2019-03-16T00:43:13.947Z,2.00
2019-03-16T00:48:13.492Z,1.17
2019-03-16T00:53:13.034Z,1.97
2019-03-16T00:58:12.816Z,1.40
2019-03-16T01:03:12.337Z,2.00
2019-03-16T01:08:11.874Z,2.03
2019-03-16T01:13:11.426Z,2.60
2019-03-16T01:18:10.974Z,1.30
2019-03-16T01:23:10.506Z,1.40
2019-03-16T01:28:10.036Z,3.00
2019-03-16T01:33:09.574Z,1.43
2019-03-16T01:38:09.107Z,1.77
2019-03-16T01:43:08.709Z,1.97
2019-03-16T01:48:08.254Z,1.63
2019-03-16T01:53:07.800Z,1.80
2019-03-16T01:58:07.331Z,1.90
2019-03-16T02:03:06.858Z,1.70
2019-03-16T02:08:06.394Z,1.03
2019-03-16T02:13:05.998Z,1.50
2019-03-16T02:18:05.555Z,1.23
2019-03-16T02:23:05.165Z,4.10
2019-03-16T02:28:04.775Z,2.07
2019-03-16T02:33:12.441Z,2.20
2019-03-16T02:38:05.575Z,1.30
2019-03-16T02:43:05.171Z,1.60
2019-03-16T02:48:04.778Z,1.43
2019-03-16T02:53:05.367Z,1.53
2019-03-16T02:58:04.905Z,2.50
2019-03-16T03:03:04.632Z,1.63
2019-03-16T03:08:04.240Z,2.43
2019-03-16T03:13:03.998Z,2.80
2019-03-16T03:18:03.528Z,2.27
2019-03-16T03:23:03.076Z,1.60
2019-03-16T03:28:02.631Z,2.00
2019-03-16T03:33:02.259Z,2.17
2019-03-16T03:38:01.777Z,1.40
2019-03-16T03:43:01.385Z,2.07
2019-03-16T03:48:00.924Z,2.03
2019-03-16T03:53:00.492Z,1.70
2019-03-16T03:58:00.028Z,2.50
2019-03-16T04:02:59.738Z,2.00
2019-03-16T04:07:59.359Z,1.50
2019-03-16T04:12:59.353Z,2.73
2019-03-16T04:17:58.935Z,2.93
2019-03-16T04:22:58.471Z,1.90
2019-03-16T04:27:58.091Z,1.93
2019-03-16T04:32:57.639Z,2.17
2019-03-16T04:37:57.199Z,1.67
2019-03-16T04:42:56.799Z,1.90
2019-03-16T04:47:56.332Z,1.30
2019-03-16T04:52:56.014Z,1.73
2019-03-16T04:57:55.545Z,1.90
2019-03-16T05:02:55.065Z,1.83
2019-03-16T05:07:54.615Z,1.13
2019-03-16T05:12:54.156Z,1.70
2019-03-16T05:17:53.717Z,2.37
2019-03-16T05:22:53.339Z,1.47
2019-03-16T05:27:52.871Z,1.77
2019-03-16T05:32:52.547Z,2.33
2019-03-16T05:37:52.194Z,2.23
2019-03-16T05:42:51.710Z,1.40
2019-03-16T05:47:51.263Z,1.83
2019-03-16T05:52:50.812Z,1.17
2019-03-16T05:57:50.370Z,2.20
2019-03-16T06:02:49.978Z,1.87
2019-03-16T06:07:49.510Z,1.50
2019-03-16T06:12:49.065Z,2.27
2019-03-16T06:17:48.608Z,1.70
2019-03-16T06:22:48.170Z,2.33
2019-03-16T06:27:47.716Z,2.07
2019-03-16T06:32:47.265Z,1.57
2019-03-16T06:37:46.790Z,1.63
2019-03-16T06:42:46.319Z,2.00
2019-03-16T06:47:45.912Z,2.20
2019-03-16T06:52:45.512Z,2.10
2019-03-16T06:57:46.403Z,1.80
2019-03-16T07:02:47.029Z,2.00
2019-03-16T07:07:47.492Z,3.00
2019-03-16T07:12:47.192Z,1.97
2019-03-16T07:17:47.745Z,2.70
2019-03-16T07:22:48.004Z,2.10
2019-03-16T07:27:47.760Z,2.57
2019-03-16T07:32:47.323Z,2.37
2019-03-16T07:37:47.009Z,1.60
2019-03-16T07:42:46.604Z,1.73
2019-03-16T07:47:46.143Z,2.33
2019-03-16T07:52:45.752Z,1.80
2019-03-16T07:57:45.316Z,2.37
2019-03-16T08:02:44.909Z,2.50
2019-03-16T08:07:44.483Z,4.10
2019-03-16T08:12:44.026Z,3.50
2019-03-16T08:17:43.566Z,1.13
2019-03-16T08:22:43.116Z,2.23
2019-03-16T08:27:53.631Z,1.97
2019-03-16T08:32:44.071Z,2.60
2019-03-16T08:37:43.696Z,1.80
2019-03-16T08:42:43.318Z,2.13
2019-03-16T08:47:42.861Z,2.03
2019-03-16T08:52:42.928Z,2.60
2019-03-16T08:57:43.051Z,2.30
2019-03-16T09:02:42.589Z,2.33
2019-03-16T09:07:42.187Z,1.50
2019-03-16T09:12:53.954Z,2.30
2019-03-16T09:17:42.965Z,1.63
2019-03-16T09:22:42.493Z,1.60
2019-03-16T09:27:42.050Z,1.70
2019-03-16T09:32:41.711Z,1.90
2019-03-16T09:37:41.333Z,1.57
2019-03-16T09:42:40.991Z,1.63
2019-03-16T09:47:41.575Z,2.33
2019-03-16T09:52:41.116Z,2.13
2019-03-16T09:57:40.798Z,2.60
2019-03-16T10:02:40.366Z,2.90
2019-03-16T10:07:40.011Z,1.47
2019-03-16T10:12:40.385Z,2.10
2019-03-16T10:17:39.930Z,1.97
2019-03-16T10:22:40.444Z,1.60
2019-03-16T10:27:39.977Z,1.70
2019-03-16T10:32:39.544Z,1.60
2019-03-16T10:37:39.077Z,1.73
2019-03-16T10:42:38.643Z,2.00
2019-03-16T10:47:38.182Z,1.97
2019-03-16T10:52:37.710Z,1.40
2019-03-16T10:57:37.239Z,1.93
2019-03-16T11:02:36.778Z,1.43
2019-03-16T11:07:36.319Z,1.90
2019-03-16T11:12:35.868Z,1.13
2019-03-16T11:17:35.418Z,2.50
2019-03-16T11:22:34.952Z,1.00
2019-03-16T11:27:34.518Z,1.37
2019-03-16T11:32:34.081Z,1.23
2019-03-16T11:37:33.623Z,1.43
2019-03-16T11:42:33.161Z,1.10
2019-03-16T11:47:32.708Z,0.93
2019-03-16T11:52:32.265Z,1.27
2019-03-16T11:57:31.819Z,1.73
2019-03-16T12:02:31.365Z,1.47
2019-03-16T12:07:31.850Z,1.33
2019-03-16T12:12:31.561Z,1.87
2019-03-16T12:17:31.112Z,1.47
2019-03-16T12:22:30.656Z,2.30
2019-03-16T12:27:30.196Z,1.90
2019-03-16T12:32:29.721Z,1.53
2019-03-16T12:37:29.255Z,1.60
2019-03-16T12:42:29.055Z,2.07
2019-03-16T12:47:31.047Z,2.47
2019-03-16T12:52:29.828Z,1.90
2019-03-16T12:57:29.363Z,1.83
2019-03-16T13:02:29.037Z,1.93
2019-03-16T13:07:28.579Z,1.33
2019-03-16T13:12:29.989Z,1.93
2019-03-16T13:17:31.431Z,1.73
2019-03-16T13:22:32.882Z,1.60
2019-03-16T13:27:34.159Z,1.00
2019-03-16T13:32:35.703Z,1.00
2019-03-16T13:37:38.727Z,1.30
2019-03-16T13:42:41.828Z,1.30
2019-03-16T13:47:42.956Z,1.10
2019-03-16T13:52:43.854Z,0.70
2019-03-16T13:57:45.503Z,0.70
2019-03-16T14:02:46.910Z,1.10
2019-03-16T14:07:48.352Z,0.90
2019-03-16T14:12:49.881Z,0.63
2019-03-16T14:17:51.462Z,0.90
2019-03-16T14:22:53.336Z,1.10
2019-03-16T14:27:54.886Z,1.10
2019-03-16T14:32:56.480Z,1.13
2019-03-16T14:37:56.242Z,1.47
2019-03-16T14:43:11.223Z,1.43
2019-03-16T14:48:09.455Z,1.53
2019-03-16T14:53:09.055Z,1.07
2019-03-16T14:58:08.664Z,1.30
2019-03-16T15:03:08.194Z,1.20
2019-03-16T15:08:07.834Z,1.20
2019-03-16T15:13:07.371Z,1.10
2019-03-16T15:18:07.477Z,1.20
2019-03-16T15:23:07.489Z,1.43
2019-03-16T15:28:07.696Z,1.60
2019-03-16T15:33:07.394Z,1.17
2019-03-16T15:38:06.957Z,1.40
2019-03-16T15:43:06.935Z,1.23
2019-03-16T15:48:06.823Z,1.20
2019-03-16T15:53:08.155Z,2.00
2019-03-16T15:58:08.789Z,1.47
2019-03-16T16:03:09.425Z,1.40
2019-03-16T16:08:09.063Z,1.20
2019-03-16T16:13:10.066Z,1.07
2019-03-16T16:18:11.983Z,1.53
2019-03-16T16:23:14.694Z,1.43
2019-03-16T16:28:16.605Z,2.07
2019-03-16T16:33:19.097Z,2.60
2019-03-16T16:38:32.398Z,2.77
2019-03-16T16:43:34.096Z,2.93
2019-03-16T16:48:35.674Z,3.17
2019-03-16T16:53:37.400Z,3.70
2019-03-16T16:58:37.142Z,3.60
2019-03-16T17:03:36.695Z,3.87
2019-03-16T17:08:36.250Z,3.47
2019-03-16T17:13:35.917Z,4.77
2019-03-16T17:18:35.529Z,5.40
2019-03-16T17:23:35.203Z,5.17
2019-03-16T17:28:34.870Z,5.47
2019-03-16T17:33:34.427Z,5.10
2019-03-16T17:38:33.989Z,5.40
2019-03-16T17:43:33.640Z,5.60
2019-03-16T17:48:33.254Z,5.60
2019-03-16T17:53:32.961Z,5.97
2019-03-16T17:58:32.534Z,6.77
2019-03-16T18:03:32.290Z,7.33
2019-03-16T18:08:31.930Z,5.87
2019-03-16T18:13:31.704Z,7.50
2019-03-16T18:18:31.681Z,8.00
2019-03-16T18:23:31.524Z,8.90
2019-03-16T18:28:31.059Z,9.00
2019-03-16T18:33:31.632Z,9.60
2019-03-16T18:38:31.259Z,9.07
2019-03-16T18:43:31.930Z,10.17
2019-03-16T18:48:32.064Z,9.73
2019-03-16T18:53:31.834Z,8.70
2019-03-16T18:59:23.767Z,8.30
2019-03-16T19:03:33.891Z,7.83
2019-03-16T19:08:33.465Z,8.00
2019-03-16T19:13:33.086Z,7.63
2019-03-16T19:18:32.693Z,7.97
2019-03-16T19:23:32.256Z,7.73
2019-03-16T19:28:31.826Z,7.37
2019-03-16T19:33:31.386Z,6.20
2019-03-16T19:38:30.945Z,5.77
2019-03-16T19:43:31.554Z,6.40
2019-03-16T19:48:31.133Z,7.60
2019-03-16T19:53:30.688Z,7.50
2019-03-16T19:58:30.250Z,8.63
2019-03-16T20:03:29.804Z,7.07
2019-03-16T20:08:29.347Z,7.67
2019-03-16T20:13:28.898Z,7.50
2019-03-16T20:18:28.454Z,6.40
2019-03-16T20:23:28.007Z,6.83
2019-03-16T20:28:27.571Z,6.07
2019-03-16T20:33:27.133Z,5.77
2019-03-16T20:38:26.962Z,6.10
2019-03-16T20:43:26.514Z,5.20
2019-03-16T20:48:26.139Z,4.53
2019-03-16T20:53:25.687Z,4.07
2019-03-16T20:58:25.594Z,4.03
2019-03-16T21:03:25.159Z,4.00
2019-03-16T21:08:24.745Z,3.73
2019-03-16T21:13:24.280Z,3.30
2019-03-16T21:18:23.811Z,2.43
2019-03-16T21:23:23.347Z,2.80
2019-03-16T21:28:22.912Z,2.63
2019-03-16T21:33:29.532Z,2.20
2019-03-16T21:38:24.779Z,2.03
2019-03-16T21:43:24.324Z,2.30
2019-03-16T21:48:23.878Z,2.20
2019-03-16T21:53:23.414Z,2.00
2019-03-16T21:58:22.949Z,2.00
2019-03-16T22:03:22.507Z,1.90
2019-03-16T22:08:22.048Z,1.70
2019-03-16T22:13:21.586Z,1.70
2019-03-16T22:18:21.154Z,1.60
2019-03-16T22:23:20.804Z,2.30
2019-03-16T22:28:20.363Z,1.43
2019-03-16T22:33:19.913Z,1.63
2019-03-16T22:38:19.481Z,1.57
2019-03-16T22:43:19.096Z,1.30
2019-03-16T22:48:20.669Z,1.60
2019-03-16T22:53:19.914Z,1.67
2019-03-16T22:58:19.477Z,1.83
2019-03-16T23:03:19.060Z,1.50
2019-03-16T23:08:18.683Z,1.70
2019-03-16T23:13:18.242Z,1.90
2019-03-16T23:18:17.912Z,2.00
2019-03-16T23:23:17.480Z,1.57
2019-03-16T23:28:17.098Z,1.80
2019-03-16T23:33:18.270Z,2.03
2019-03-16T23:38:17.873Z,1.83
2019-03-16T23:43:18.265Z,1.63
2019-03-16T23:48:18.179Z,1.90
2019-03-16T23:53:17.721Z,2.00
2019-03-16T23:58:17.256Z,2.00
